createdAt,value
2023-02-22T00:01:42.922Z,88.19
2023-02-22T00:04:10.703Z,87.95
2023-02-22T00:06:37.938Z,87.59
2023-02-22T00:09:04.977Z,87.48
2023-02-22T00:11:31.930Z,87.72
2023-02-22T00:13:58.903Z,87.57
2023-02-22T00:16:26.605Z,87.55
2023-02-22T00:18:53.730Z,87.50
2023-02-22T00:21:20.897Z,87.38
2023-02-22T00:23:48.809Z,87.47
2023-02-22T00:26:20.602Z,87.45
2023-02-22T00:28:53.034Z,87.37
2023-02-22T00:31:21.136Z,87.12
2023-02-22T00:33:48.219Z,87.04
2023-02-22T00:36:15.511Z,86.81
2023-02-22T00:38:42.584Z,87.14
2023-02-22T00:41:09.674Z,86.90
2023-02-22T00:43:36.719Z,86.86
2023-02-22T00:46:04.267Z,86.87
2023-02-22T00:48:31.282Z,86.70
2023-02-22T00:50:58.543Z,86.74
2023-02-22T00:53:26.691Z,86.77
2023-02-22T00:55:54.436Z,86.75
2023-02-22T00:58:22.264Z,86.36
2023-02-22T01:00:49.542Z,86.61
2023-02-22T01:03:20.056Z,86.50
2023-02-22T01:05:48.420Z,86.81
2023-02-22T01:08:18.121Z,86.56
2023-02-22T01:10:46.856Z,86.24
2023-02-22T01:13:13.995Z,86.22
2023-02-22T01:15:43.163Z,86.26
2023-02-22T01:18:11.747Z,86.08
2023-02-22T01:20:39.516Z,86.19
2023-02-22T01:23:08.190Z,86.14
2023-02-22T01:25:36.078Z,85.78
2023-02-22T01:28:05.317Z,85.81
2023-02-22T01:30:35.591Z,86.04
2023-02-22T01:33:06.602Z,86.19
2023-02-22T01:35:38.564Z,85.85
2023-02-22T01:38:05.615Z,85.66
2023-02-22T01:40:39.287Z,85.76
2023-02-22T01:43:26.991Z,85.90
2023-02-22T01:46:08.341Z,85.75
2023-02-22T01:49:13.346Z,85.83
2023-02-22T01:51:45.068Z,85.90
2023-02-22T01:54:15.325Z,85.86
2023-02-22T01:57:00.980Z,86.11
2023-02-22T01:59:29.773Z,86.08
2023-02-22T02:04:38.246Z,85.73
2023-02-22T02:07:10.456Z,85.75
2023-02-22T02:09:57.690Z,85.55
2023-02-22T02:12:24.831Z,85.61
2023-02-22T02:14:52.274Z,85.77
2023-02-22T02:17:21.945Z,85.59
2023-02-22T02:20:03.027Z,85.53
2023-02-22T02:23:06.912Z,85.53
2023-02-22T02:26:10.876Z,85.44
2023-02-22T02:29:06.995Z,85.11
2023-02-22T02:32:04.414Z,85.62
2023-02-22T02:34:49.754Z,85.44
2023-02-22T02:37:38.622Z,85.47
2023-02-22T02:40:17.961Z,85.43
2023-02-22T02:43:33.500Z,85.69
2023-02-22T02:46:40.478Z,85.38
2023-02-22T02:49:22.453Z,85.26
2023-02-22T02:51:51.922Z,85.55
2023-02-22T02:54:21.095Z,85.56
2023-02-22T02:56:48.170Z,85.55
2023-02-22T02:59:44.571Z,85.67
2023-02-22T03:02:52.933Z,85.48
2023-02-22T03:05:28.596Z,85.67
2023-02-22T03:08:02.576Z,85.64
2023-02-22T03:11:15.286Z,85.62
2023-02-22T03:14:12.129Z,85.56
2023-02-22T03:17:12.227Z,85.58
2023-02-22T03:19:48.064Z,85.78
2023-02-22T03:22:28.035Z,85.56
2023-02-22T03:25:09.031Z,85.62
2023-02-22T03:27:46.884Z,85.41
2023-02-22T03:30:43.269Z,85.66
2023-02-22T03:33:20.542Z,85.50
2023-02-22T03:35:56.977Z,85.46
2023-02-22T03:38:28.139Z,85.67
2023-02-22T03:40:59.375Z,85.52
2023-02-22T03:43:40.624Z,85.62
2023-02-22T03:46:09.982Z,85.58
2023-02-22T03:48:51.090Z,85.47
2023-02-22T03:51:18.698Z,85.52
2023-02-22T03:53:45.995Z,85.53
2023-02-22T03:56:20.314Z,85.56
2023-02-22T03:58:48.237Z,85.38
2023-02-22T04:01:15.927Z,85.42
2023-02-22T04:03:43.523Z,85.43
2023-02-22T04:06:11.127Z,85.31
2023-02-22T04:08:38.568Z,85.11
2023-02-22T04:11:05.862Z,85.34
2023-02-22T04:13:32.939Z,85.21
2023-02-22T04:15:59.995Z,85.13
2023-02-22T04:18:27.018Z,85.17
2023-02-22T04:20:54.157Z,85.03
2023-02-22T04:23:21.423Z,85.11
2023-02-22T04:25:48.499Z,84.99
2023-02-22T04:28:15.766Z,84.87
2023-02-22T04:30:44.022Z,84.71
2023-02-22T04:33:11.147Z,84.92
2023-02-22T04:35:40.675Z,84.82
2023-02-22T04:38:09.351Z,84.77
2023-02-22T04:40:36.628Z,84.72
2023-02-22T04:43:03.688Z,84.64
2023-02-22T04:45:31.115Z,84.34
2023-02-22T06:03:29.162Z,84.90
2023-02-22T06:05:56.216Z,84.96
2023-02-22T06:08:23.262Z,84.80
2023-02-22T06:10:50.469Z,84.76
2023-02-22T06:13:17.596Z,84.69
2023-02-22T06:15:44.575Z,84.90
2023-02-22T06:18:11.659Z,84.70
2023-02-22T06:20:38.804Z,84.52
2023-02-22T06:23:05.769Z,84.71
2023-02-22T06:25:33.028Z,84.75
2023-02-22T06:28:01.123Z,84.72
2023-02-22T06:30:29.912Z,84.52
2023-02-22T06:32:56.871Z,84.64
2023-02-22T06:35:23.936Z,84.79
2023-02-22T06:37:50.957Z,84.79
2023-02-22T06:40:18.054Z,84.92
2023-02-22T06:42:45.056Z,84.82
2023-02-22T06:45:12.215Z,84.37
2023-02-22T06:47:42.410Z,84.44
2023-02-22T06:50:23.714Z,84.16
2023-02-22T06:52:50.952Z,84.39
2023-02-22T06:55:29.747Z,84.41
2023-02-22T06:57:56.960Z,84.61
2023-02-22T07:00:25.815Z,85.01
2023-02-22T07:02:53.944Z,84.99
2023-02-22T07:05:22.886Z,84.81
2023-02-22T07:07:52.726Z,84.92
2023-02-22T07:10:29.196Z,84.82
2023-02-22T07:12:56.598Z,85.21
2023-02-22T07:15:28.014Z,84.95
2023-02-22T07:17:55.290Z,85.12
2023-02-22T07:20:24.593Z,84.80
2023-02-22T07:22:52.063Z,84.94
2023-02-22T07:25:19.856Z,85.01
2023-02-22T07:27:47.523Z,84.83
2023-02-22T07:30:18.846Z,85.04
2023-02-22T07:32:47.433Z,85.07
2023-02-22T07:35:23.865Z,85.05
2023-02-22T07:37:50.991Z,85.12
2023-02-22T07:40:19.154Z,85.21
2023-02-22T07:42:55.890Z,85.15
2023-02-22T07:45:25.201Z,85.19
2023-02-22T07:47:52.272Z,84.95
2023-02-22T07:50:22.177Z,85.38
2023-02-22T07:52:51.331Z,85.29
2023-02-22T07:55:26.038Z,85.40
2023-02-22T07:57:56.287Z,85.24
2023-02-22T08:00:33.085Z,85.14
2023-02-22T08:03:02.910Z,85.49
2023-02-22T08:05:32.059Z,85.71
2023-02-22T08:07:59.119Z,85.53
2023-02-22T08:10:26.924Z,85.65
2023-02-22T08:12:55.042Z,85.50
2023-02-22T08:15:35.192Z,85.74
2023-02-22T08:18:05.010Z,85.77
2023-02-22T08:20:32.241Z,85.94
2023-02-22T08:22:59.247Z,86.01
2023-02-22T08:25:28.621Z,85.98
2023-02-22T08:28:02.692Z,85.84
2023-02-22T08:30:31.508Z,85.86
2023-02-22T08:32:59.362Z,85.87
2023-02-22T08:35:27.709Z,86.08
2023-02-22T08:37:58.927Z,86.10
2023-02-22T08:40:29.038Z,86.32
2023-02-22T08:42:56.236Z,85.97
2023-02-22T08:45:23.678Z,85.96
2023-02-22T08:47:51.422Z,85.96
2023-02-22T08:50:22.830Z,86.29
2023-02-22T08:52:56.118Z,85.97
2023-02-22T08:55:28.252Z,86.17
2023-02-22T08:57:55.388Z,86.08
2023-02-22T09:00:26.119Z,86.17
2023-02-22T09:02:53.416Z,85.90
2023-02-22T09:05:20.745Z,86.12
2023-02-22T09:07:48.776Z,86.20
2023-02-22T09:10:19.346Z,86.23
2023-02-22T09:12:47.088Z,86.59
2023-02-22T09:15:15.012Z,86.46
2023-02-22T09:17:42.199Z,86.43
2023-02-22T09:20:11.992Z,86.35
2023-02-22T09:22:39.883Z,86.52
2023-02-22T09:25:16.579Z,86.49
2023-02-22T09:27:48.063Z,86.39
2023-02-22T09:30:32.330Z,86.21
2023-02-22T09:33:17.857Z,86.45
2023-02-22T09:35:48.069Z,86.69
2023-02-22T09:38:18.479Z,86.31
2023-02-22T09:41:34.613Z,86.61
2023-02-22T09:44:29.741Z,86.34
2023-02-22T09:46:58.688Z,86.44
2023-02-22T09:49:38.584Z,86.44
2023-02-22T09:52:18.878Z,86.44
2023-02-22T09:54:53.233Z,86.26
2023-02-22T09:57:42.346Z,86.55
2023-02-22T10:00:29.407Z,86.38
2023-02-22T10:03:21.450Z,86.45
2023-02-22T10:06:06.520Z,86.50
2023-02-22T10:08:35.255Z,86.65
2023-02-22T10:11:25.956Z,86.59
2023-02-22T10:14:04.667Z,86.65
2023-02-22T10:16:41.001Z,86.44
2023-02-22T10:19:55.403Z,86.66
2023-02-22T10:22:47.066Z,86.46
2023-02-22T10:25:24.197Z,86.59
2023-02-22T10:28:06.602Z,86.62
2023-02-22T10:30:42.620Z,86.75
2023-02-22T10:33:27.260Z,86.77
2023-02-22T10:35:56.200Z,86.70
2023-02-22T10:38:27.592Z,86.90
2023-02-22T10:41:10.201Z,86.69
2023-02-22T10:43:41.736Z,86.71
2023-02-22T10:46:14.018Z,86.88
2023-02-22T10:48:43.579Z,86.99
2023-02-22T10:51:11.167Z,86.91
2023-02-22T10:53:38.994Z,86.79
2023-02-22T10:56:21.401Z,86.66
2023-02-22T10:58:54.336Z,86.85
2023-02-22T11:01:32.635Z,86.64
2023-02-22T11:04:16.114Z,86.55
2023-02-22T11:06:47.060Z,86.26
2023-02-22T11:09:22.676Z,86.46
2023-02-22T11:12:07.926Z,86.35
2023-02-22T11:14:35.020Z,86.30
2023-02-22T11:17:13.084Z,85.93
2023-02-22T11:19:49.530Z,86.04
2023-02-22T11:22:41.163Z,85.87
2023-02-22T11:25:19.141Z,85.95
2023-02-22T11:27:47.117Z,85.75
2023-02-22T11:30:35.092Z,85.77
2023-02-22T11:33:24.015Z,85.73
2023-02-22T11:36:00.216Z,85.55
2023-02-22T11:38:32.975Z,85.50
2023-02-22T11:41:22.029Z,85.36
2023-02-22T11:43:54.448Z,85.53
2023-02-22T11:46:22.721Z,85.49
2023-02-22T11:49:06.045Z,85.54
2023-02-22T11:51:45.411Z,85.29
2023-02-22T11:54:31.373Z,85.16
2023-02-22T11:57:36.444Z,84.72
2023-02-22T12:00:26.692Z,85.01
2023-02-22T12:03:18.026Z,85.00
2023-02-22T12:06:10.271Z,84.81
2023-02-22T12:08:41.176Z,84.89
2023-02-22T12:11:12.956Z,84.83
2023-02-22T12:13:53.309Z,84.98
2023-02-22T12:16:29.587Z,85.19
2023-02-22T12:19:11.241Z,85.06
2023-02-22T12:21:41.058Z,85.27
2023-02-22T12:24:16.758Z,85.32
2023-02-22T12:26:52.095Z,85.36
2023-02-22T12:29:28.330Z,85.31
2023-02-22T12:32:00.927Z,85.55
2023-02-22T12:34:27.795Z,85.39
2023-02-22T12:37:01.566Z,85.43
2023-02-22T12:39:51.840Z,85.43
2023-02-22T12:42:25.100Z,85.83
2023-02-22T12:45:02.144Z,85.63
2023-02-22T12:47:42.853Z,85.40
2023-02-22T12:50:16.133Z,85.41
2023-02-22T12:52:50.926Z,85.25
2023-02-22T12:55:23.974Z,85.12
2023-02-22T12:58:04.548Z,85.06
2023-02-22T13:00:46.858Z,84.98
2023-02-22T13:03:21.563Z,85.16
2023-02-22T13:05:52.182Z,84.68
2023-02-22T13:08:31.145Z,84.70
2023-02-22T13:11:25.872Z,84.58
2023-02-22T13:14:30.273Z,84.54
2023-02-22T13:17:38.366Z,84.50
2023-02-22T13:20:29.096Z,84.58
2023-02-22T13:23:20.317Z,84.53
2023-02-22T13:26:04.188Z,84.31
2023-02-22T13:28:38.265Z,84.29
2023-02-22T13:31:33.302Z,84.31
2023-02-22T13:34:33.977Z,84.18
2023-02-22T13:37:04.490Z,84.11
2023-02-22T13:40:13.813Z,84.04
2023-02-22T13:43:17.556Z,84.15
2023-02-22T13:46:01.500Z,83.98
2023-02-22T13:49:03.503Z,83.98
2023-02-22T13:51:48.935Z,83.73
2023-02-22T13:54:19.835Z,83.87
2023-02-22T13:56:49.642Z,83.85
2023-02-22T13:59:36.082Z,83.66
2023-02-22T14:02:05.669Z,83.28
2023-02-22T14:04:34.379Z,83.49
2023-02-22T14:07:26.718Z,83.22
2023-02-22T14:09:56.542Z,83.11
2023-02-22T14:12:29.484Z,83.08
2023-02-22T14:15:28.173Z,83.10
2023-02-22T14:18:05.759Z,82.94
2023-02-22T14:20:37.071Z,82.75
2023-02-22T14:23:42.760Z,82.81
2023-02-22T14:26:27.553Z,82.64
2023-02-22T14:29:14.468Z,82.52
2023-02-22T14:31:43.338Z,82.62
2023-02-22T14:34:18.189Z,82.67
2023-02-22T14:37:25.119Z,82.37
2023-02-22T14:40:18.616Z,82.55
2023-02-22T14:42:51.167Z,82.44
2023-02-22T14:45:24.951Z,82.12
2023-02-22T14:48:18.969Z,81.94
2023-02-22T14:50:51.108Z,81.79
2023-02-22T14:53:38.384Z,81.67
2023-02-22T14:56:28.799Z,81.63
2023-02-22T14:58:55.579Z,81.71
2023-02-22T15:01:33.914Z,81.71
2023-02-22T15:04:38.100Z,81.56
2023-02-22T15:07:19.787Z,81.62
2023-02-22T15:09:48.457Z,81.61
2023-02-22T15:12:29.926Z,81.66
2023-02-22T15:15:17.088Z,81.80
2023-02-22T15:17:46.262Z,81.89
2023-02-22T15:20:16.794Z,81.84
2023-02-22T15:22:43.796Z,81.62
2023-02-22T15:25:12.338Z,81.84
2023-02-22T15:27:39.405Z,82.01
2023-02-22T15:30:20.801Z,81.89
2023-02-22T15:33:03.146Z,82.25
2023-02-22T15:35:32.076Z,82.05
2023-02-22T15:38:03.058Z,82.08
2023-02-22T15:40:43.252Z,82.27
2023-02-22T15:43:24.582Z,82.26
2023-02-22T15:45:51.951Z,82.17
2023-02-22T15:48:18.909Z,82.31
2023-02-22T15:51:09.553Z,82.17
2023-02-22T15:53:45.659Z,82.13
2023-02-22T15:56:18.142Z,82.40
2023-02-22T15:58:47.406Z,82.12
2023-02-22T16:01:17.818Z,82.21
2023-02-22T16:03:50.488Z,82.11
2023-02-22T16:06:29.614Z,82.09
2023-02-22T16:08:58.429Z,81.94
2023-02-22T16:11:38.503Z,81.79
2023-02-22T16:14:08.210Z,81.88
2023-02-22T16:16:41.808Z,81.83
2023-02-22T16:19:17.826Z,81.85
2023-02-22T16:21:58.379Z,81.74
2023-02-22T16:24:28.477Z,81.60
2023-02-22T16:27:11.969Z,81.59
2023-02-22T16:29:38.928Z,81.77
2023-02-22T16:32:05.953Z,81.71
2023-02-22T16:34:32.955Z,81.58
2023-02-22T16:36:59.959Z,81.66
2023-02-22T16:39:31.166Z,81.73
2023-02-22T16:42:02.434Z,81.64
2023-02-22T16:44:29.611Z,81.61
2023-02-22T16:46:58.234Z,81.64
2023-02-22T16:49:25.287Z,81.65
2023-02-22T16:51:58.577Z,81.64
2023-02-22T16:54:30.568Z,81.60
2023-02-22T16:57:02.016Z,81.70
2023-02-22T16:59:29.033Z,81.81
2023-02-22T17:01:58.801Z,81.86
2023-02-22T17:04:26.487Z,81.62
2023-02-22T17:06:53.560Z,81.86
2023-02-22T17:09:20.475Z,81.90
2023-02-22T17:11:49.378Z,81.88
2023-02-22T17:14:23.475Z,81.99
2023-02-22T17:16:53.517Z,82.08
2023-02-22T17:19:22.721Z,82.12
2023-02-22T17:21:50.374Z,82.17
2023-02-22T17:24:20.289Z,82.10
2023-02-22T17:26:47.396Z,82.32
2023-02-22T17:29:15.602Z,82.36
2023-02-22T17:31:43.764Z,82.57
2023-02-22T17:34:10.702Z,82.41
2023-02-22T17:36:38.212Z,82.54
2023-02-22T17:39:05.688Z,82.54
2023-02-22T17:41:32.660Z,82.58
2023-02-22T17:43:59.626Z,82.44
2023-02-22T17:46:26.769Z,82.44
2023-02-22T17:48:56.530Z,82.49
2023-02-22T17:51:25.176Z,82.65
2023-02-22T17:53:52.188Z,82.46
2023-02-22T17:56:19.539Z,82.58
2023-02-22T17:58:49.736Z,82.67
2023-02-22T18:01:34.918Z,82.67
2023-02-22T18:04:02.462Z,82.80
2023-02-22T18:06:30.689Z,82.81
2023-02-22T18:08:59.170Z,82.86
2023-02-22T18:11:27.446Z,82.87
2023-02-22T18:13:55.892Z,82.99
2023-02-22T18:16:23.298Z,82.95
2023-02-22T18:18:50.421Z,83.10
2023-02-22T18:21:17.381Z,82.95
2023-02-22T18:23:47.033Z,83.15
2023-02-22T18:26:19.386Z,83.03
2023-02-22T18:28:48.786Z,83.19
2023-02-22T18:31:20.448Z,83.27
2023-02-22T18:33:49.387Z,83.18
2023-02-22T18:36:17.123Z,83.36
2023-02-22T18:38:44.776Z,83.16
2023-02-22T18:41:13.468Z,83.21
2023-02-22T18:43:40.741Z,83.27
2023-02-22T18:46:19.089Z,83.22
2023-02-22T18:48:47.290Z,83.24
2023-02-22T18:51:15.933Z,83.25
2023-02-22T18:53:47.046Z,83.40
2023-02-22T18:56:17.262Z,83.31
2023-02-22T18:58:44.427Z,83.12
2023-02-22T19:01:16.195Z,83.52
2023-02-22T19:03:43.543Z,83.63
2023-02-22T19:06:10.527Z,83.46
2023-02-22T19:08:41.202Z,83.46
2023-02-22T19:11:11.150Z,83.53
2023-02-22T19:13:38.399Z,83.58
2023-02-22T19:16:07.539Z,83.64
2023-02-22T19:18:34.590Z,83.71
2023-02-22T19:21:02.558Z,83.58
2023-02-22T19:23:34.414Z,83.45
2023-02-22T19:26:03.491Z,83.60
2023-02-22T19:28:34.265Z,83.68
2023-02-22T19:31:34.273Z,83.57
2023-02-22T19:34:06.173Z,83.40
2023-02-22T19:36:33.179Z,83.63
2023-02-22T19:39:02.817Z,83.35
2023-02-22T19:41:29.969Z,83.58
2023-02-22T19:43:57.414Z,83.75
2023-02-22T19:46:27.085Z,83.76
2023-02-22T19:48:55.371Z,83.65
2023-02-22T19:51:29.177Z,83.62
2023-02-22T19:54:02.561Z,83.54
2023-02-22T19:56:31.108Z,83.65
2023-02-22T19:59:09.545Z,83.60
2023-02-22T20:01:37.362Z,83.73
2023-02-22T20:04:06.809Z,83.78
2023-02-22T20:06:42.935Z,83.80
2023-02-22T20:09:13.033Z,83.61
2023-02-22T20:11:40.197Z,83.75
2023-02-22T20:14:11.190Z,83.64
2023-02-22T20:16:38.528Z,83.73
2023-02-22T20:19:06.543Z,83.95
2023-02-22T20:21:34.113Z,83.68
2023-02-22T20:24:02.822Z,83.67
2023-02-22T20:26:31.082Z,83.82
2023-02-22T20:28:58.558Z,83.97
2023-02-22T20:31:25.778Z,83.88
2023-02-22T20:33:55.949Z,83.74
2023-02-22T20:36:23.284Z,83.79
2023-02-22T20:38:54.351Z,84.11
2023-02-22T20:41:32.283Z,84.07
2023-02-22T20:44:00.576Z,83.97
2023-02-22T20:46:28.441Z,83.82
2023-02-22T20:48:56.452Z,84.00
2023-02-22T20:51:23.455Z,83.76
2023-02-22T20:53:50.386Z,83.97
2023-02-22T20:56:20.180Z,83.85
2023-02-22T20:58:47.392Z,84.08
2023-02-22T21:01:17.265Z,83.76
2023-02-22T21:03:44.478Z,83.97
2023-02-22T21:06:18.185Z,83.88
2023-02-22T21:08:46.859Z,83.87
2023-02-22T21:11:15.632Z,84.10
2023-02-22T21:13:42.599Z,84.15
2023-02-22T21:16:10.658Z,84.16
2023-02-22T21:18:38.042Z,84.00
2023-02-22T21:21:10.518Z,84.32
2023-02-22T21:23:38.540Z,84.28
2023-02-22T21:26:05.927Z,84.37
2023-02-22T21:28:50.552Z,84.15
2023-02-22T21:31:20.071Z,84.18
2023-02-22T21:33:49.775Z,84.38
2023-02-22T21:36:16.935Z,84.55
2023-02-22T21:38:45.778Z,84.53
2023-02-22T21:41:13.322Z,84.47
2023-02-22T21:43:41.460Z,84.55
2023-02-22T21:46:12.230Z,84.59
2023-02-22T21:48:39.890Z,84.72
2023-02-22T21:51:14.371Z,84.84
2023-02-22T21:53:48.215Z,84.67
2023-02-22T21:56:17.603Z,84.57
2023-02-22T21:58:45.603Z,84.79
2023-02-22T22:01:17.546Z,84.80
2023-02-22T22:03:45.991Z,85.02
2023-02-22T22:06:13.784Z,85.09
2023-02-22T22:08:41.689Z,84.97
2023-02-22T22:11:13.768Z,85.14
2023-02-22T22:13:41.752Z,85.11
2023-02-22T22:16:29.996Z,85.32
2023-02-22T22:18:57.366Z,85.10
2023-02-22T22:21:24.602Z,85.15
2023-02-22T22:23:54.519Z,85.37
2023-02-22T22:26:22.165Z,85.74
2023-02-22T22:28:54.640Z,85.75
2023-02-22T22:31:23.894Z,85.87
2023-02-22T22:33:51.078Z,85.59
2023-02-22T22:36:18.810Z,85.80
2023-02-22T22:38:48.540Z,85.99
2023-02-22T22:41:17.769Z,86.38
2023-02-22T22:43:48.315Z,86.02
2023-02-22T22:46:17.387Z,86.13
2023-02-22T22:48:47.202Z,86.37
2023-02-22T22:51:22.173Z,86.33
2023-02-22T22:53:50.004Z,86.38
2023-02-22T22:56:20.627Z,86.25
2023-02-22T22:58:49.287Z,86.28
2023-02-22T23:01:18.097Z,86.29
2023-02-22T23:03:55.201Z,86.38
2023-02-22T23:06:27.256Z,86.48
2023-02-22T23:09:00.099Z,86.75
2023-02-22T23:11:33.661Z,86.78
2023-02-22T23:14:02.858Z,86.73
2023-02-22T23:16:29.819Z,86.60
2023-02-22T23:18:58.733Z,86.73
2023-02-22T23:21:25.628Z,86.58
2023-02-22T23:23:58.793Z,86.63
2023-02-22T23:26:26.875Z,86.48
2023-02-22T23:28:55.981Z,86.81
2023-02-22T23:31:23.340Z,86.87
2023-02-22T23:33:50.382Z,87.08
2023-02-22T23:36:18.693Z,87.24
2023-02-22T23:38:45.709Z,87.20
2023-02-22T23:41:16.862Z,87.36
2023-02-22T23:43:45.541Z,87.37
2023-02-22T23:46:18.551Z,87.43
2023-02-22T23:48:51.106Z,87.32
2023-02-22T23:51:25.423Z,87.49
2023-02-22T23:53:55.819Z,87.42
2023-02-22T23:56:27.938Z,87.37
2023-02-22T23:58:57.533Z,87.48
